Página principal
METAR-TAF:

METAR-TAF

Aeroportos :

Corsicana Municipal Airport (C. David Campbell Field)

Corsicana, Texas, Estados Unidos

latitude: 32-01-52N, longitude: 096-23-56W, altura: 136 m

Observação actual do tempo

O boletim foi feito há 1 hora e 8 minutos, às 05:53 UTC
Vento 6 kt de noroeste
Temperatura 3°C
Humidade 87%
Pressão 1028 hPa
Visibilidade: 16.1 km
Céu limpo

METAR: KCRS 100553Z AUTO 32006KT 10SM CLR 03/01 A3037 RMK AO2 SLP286 T00330006 10072 20033 401060033 50003 $

Hora: 01:01 (07:01 UTC)


TAF: em falta

Observações e previsões do tempo de mais de 4000 aeroportos (mensagens METAR e TAF).

As estações disponíveis são os pontos amarelos e vermelhos sobre o mapa.

Mova o rato sobre o mapa para ver o nome da estação.

Depois clique no ponto para visualizar as observações e previsões meteorológicas.

Para alterar o mapa : clique nos botões verdes com uma cruz preta para aumentar o zoom; no botão verde com uma pitada de zoom; ou nas setas verdes para mapas adjacentes.


METAR-TAF: